Algarkirk, United Kingdom
Current Conditions -  °F | °C
As of 10:50 AM on Wednesday 22 Oct 2014 (Local Time) from EGXC Reporting Station
Clear Clear  
Wind Chill: 11°   Ceiling: Unl
Heat Index: 11°   Visibility: 6mi
Dew Point:   Wind: 15mph
Humidity: 76%   Direction: 270°W
Pressure: 30.18"   Gusts: NA
Location:  52.93°N, 0.03°W
Report Text: EGXC 220950Z 27013KT CAVOK 11/07 Q1022 BLU NOSIG
Loading
Personal Weather Stations






























Interactive Weather Map
Tropical Storm Tracking
New forecast layout! Learn more

10-Day Weather Forecast

Advertisements
Track Severe Weather on mobile